Time;durP1;ratioP1;P1;durP2;ratioP2;P2;SDS_P1;SDS_P2;PMS_P1;PMS_P2;Temp;Humidity;BMP_temperature;BMP_pressure;BME280_temperature;BME280_humidity;BME280_pressure;Samples;Min_cycle;Max_cycle;Signal;HPM_P1;HPM_P2
2023/08/26 00:02:19;;;;;;;1999.90;999.90;;;;;;;21.13;100.00;94156.84;5063814;28;20197;-59
2023/08/26 00:04:44;;;;;;;1999.90;999.90;;;;;;;21.08;100.00;94179.81;5063396;28;20558;-60
2023/08/26 00:07:10;;;;;;;1999.90;999.90;;;;;;;21.12;100.00;94208.09;5063659;28;20200;-59
2023/08/26 00:09:35;;;;;;;1999.90;999.90;;;;;;;21.20;100.00;94209.13;5063535;28;20181;-60
2023/08/26 00:12:01;;;;;;;1999.90;999.90;;;;;;;21.23;100.00;94213.69;5063712;28;20180;-60
2023/08/26 00:14:26;;;;;;;1999.90;999.90;;;;;;;21.15;100.00;94229.31;5063518;28;20170;-60
2023/08/26 00:16:51;;;;;;;1999.90;999.90;;;;;;;21.13;100.00;94237.38;5064129;28;20245;-60
2023/08/26 00:19:17;;;;;;;1999.90;999.90;;;;;;;21.21;100.00;94238.44;5063576;28;20177;-60
2023/08/26 00:21:43;;;;;;;1999.90;999.90;;;;;;;21.28;100.00;94214.97;5064064;28;20176;-59
2023/08/26 00:24:08;;;;;;;1999.90;999.90;;;;;;;21.25;100.00;94215.97;5063902;28;20198;-60
2023/08/26 00:26:34;;;;;;;1999.90;999.90;;;;;;;21.19;100.00;94210.41;5064012;28;20245;-59
2023/08/26 00:28:59;;;;;;;1999.90;999.90;;;;;;;21.11;100.00;94226.03;5063941;28;20173;-59
2023/08/26 00:31:25;;;;;;;1999.90;999.90;;;;;;;21.10;100.00;94234.88;5064100;28;20166;-60
2023/08/26 00:33:50;;;;;;;1999.90;999.90;;;;;;;21.17;100.00;94237.94;5063929;28;20173;-60
2023/08/26 00:36:15;;;;;;;1999.90;999.90;;;;;;;21.20;100.00;94253.56;5063784;28;20174;-60
2023/08/26 00:38:41;;;;;;;1999.90;999.90;;;;;;;21.21;100.00;94265.44;5066197;28;20181;-61
2023/08/26 00:41:06;;;;;;;1999.90;999.90;;;;;;;21.21;100.00;94271.00;5067343;28;20177;-60
2023/08/26 00:43:33;;;;;;;1999.90;999.90;;;;;;;21.22;100.00;94262.19;5067236;28;20190;-61
2023/08/26 00:45:59;;;;;;;1999.90;999.90;;;;;;;21.26;100.00;94261.94;5067253;28;20170;-61
2023/08/26 00:48:25;;;;;;;1999.90;999.90;;;;;;;21.26;100.00;94268.25;5067160;28;20237;-62
2023/08/26 00:50:53;;;;;;;1999.90;999.90;;;;;;;21.24;100.00;94281.88;5066985;28;20173;-61
2023/08/26 00:53:20;;;;;;;1999.90;999.90;;;;;;;21.24;100.00;94306.13;5067101;28;20177;-60
2023/08/26 00:55:46;;;;;;;1999.90;999.90;;;;;;;21.24;100.00;94326.31;5067385;28;20174;-61
2023/08/26 00:58:12;;;;;;;1999.90;999.90;;;;;;;21.27;100.00;94358.66;5067266;28;20181;-60
2023/08/26 01:00:39;;;;;;;1999.90;999.90;;;;;;;21.26;100.00;94379.38;5067085;28;20221;-60
2023/08/26 01:03:05;;;;;;;1999.90;999.90;;;;;;;21.31;100.00;94398.06;5066829;28;20177;-60
2023/08/26 01:05:31;;;;;;;1999.90;999.90;;;;;;;21.35;100.00;94415.25;5066667;28;20209;-60
2023/08/26 01:07:57;;;;;;;1999.90;999.90;;;;;;;21.38;100.00;94442.06;5067391;28;20178;-60
2023/08/26 01:10:31;;;;;;;1999.90;999.90;;;;;;;21.40;100.00;94450.66;5067254;28;20180;-61
2023/08/26 01:13:05;;;;;;;1999.90;999.90;;;;;;;21.36;100.00;94480.72;5067254;28;20166;-61
2023/08/26 01:15:34;;;;;;;1999.90;999.90;;;;;;;21.34;100.00;94508.22;5067180;28;20170;-61
2023/08/26 01:18:05;;;;;;;1999.90;999.90;;;;;;;21.36;100.00;94500.16;5067066;28;20174;-61
2023/08/26 01:20:31;;;;;;;1999.90;999.90;;;;;;;21.36;100.00;94502.16;5066912;28;20174;-61
2023/08/26 01:22:59;;;;;;;1999.90;999.90;;;;;;;21.37;100.00;94484.22;5066881;28;20196;-61
2023/08/26 01:25:24;;;;;;;1999.90;999.90;;;;;;;21.41;100.00;94457.75;5066598;28;20267;-61
2023/08/26 01:27:49;;;;;;;1999.90;999.90;;;;;;;21.42;100.00;94436.28;5066567;28;20174;-61
2023/08/26 01:30:16;;;;;;;1999.90;999.90;;;;;;;21.39;100.00;94424.16;5066745;28;20193;-61
2023/08/26 01:32:52;;;;;;;1999.90;999.90;;;;;;;21.39;100.00;94417.81;5066844;28;20170;-60
2023/08/26 01:35:26;;;;;;;1999.90;999.90;;;;;;;21.36;100.00;94389.03;5066790;28;20180;-61
2023/08/26 01:37:54;;;;;;;1999.90;999.90;;;;;;;21.38;100.00;94350.38;5066761;28;20180;-61
2023/08/26 01:40:21;;;;;;;1999.90;999.90;;;;;;;21.40;100.00;94302.66;5066141;28;20469;-61
2023/08/26 01:42:48;;;;;;;1999.90;999.90;;;;;;;21.31;100.00;94284.16;5066040;28;20195;-61
2023/08/26 01:45:14;;;;;;;1999.90;999.90;;;;;;;21.26;100.00;94268.25;5065986;28;20197;-60
2023/08/26 01:47:39;;;;;;;1999.90;999.90;;;;;;;21.18;100.00;94249.78;5065940;28;20192;-61
2023/08/26 01:50:05;;;;;;;1999.90;999.90;;;;;;;21.09;100.00;94216.69;5065763;28;20169;-61
2023/08/26 01:52:30;;;;;;;1999.90;999.90;;;;;;;20.96;100.00;94169.94;5065836;28;20177;-59
2023/08/26 01:54:56;;;;;;;1999.90;999.90;;;;;;;20.86;100.00;94054.81;5066324;28;20174;-54
2023/08/26 01:57:21;;;;;;;1999.90;999.90;;;;;;;20.78;100.00;93978.84;5065997;28;20181;-56
2023/08/26 01:59:46;;;;;;;1999.90;999.90;;;;;;;20.76;100.00;93898.09;5066021;28;20226;-53
2023/08/26 02:02:12;;;;;;;1999.90;999.90;;;;;;;20.66;100.00;93810.09;5066251;28;20216;-54
2023/08/26 02:04:38;;;;;;;1999.90;999.90;;;;;;;20.63;100.00;93717.53;5065590;28;20202;-55
2023/08/26 02:07:03;;;;;;;1999.90;999.90;;;;;;;20.57;100.00;93628.00;5065647;28;20245;-58
2023/08/26 02:09:29;;;;;;;1999.90;999.90;;;;;;;20.49;100.00;93540.28;5065555;28;20174;-56
2023/08/26 02:11:54;;;;;;;1999.90;999.90;;;;;;;20.50;100.00;93503.72;5066025;28;20212;-52
2023/08/26 02:14:19;;;;;;;1999.90;999.90;;;;;;;20.52;100.00;93434.63;5065538;28;20184;-52
2023/08/26 02:16:45;;;;;;;1999.90;999.90;;;;;;;20.53;100.00;93391.72;5065389;28;20178;-53
2023/08/26 02:19:10;;;;;;;1999.90;999.90;;;;;;;20.51;100.00;93361.00;5065337;28;20241;-52
2023/08/26 02:21:35;;;;;;;1999.90;999.90;;;;;;;20.47;100.00;93368.81;5065302;28;20181;-55
2023/08/26 02:24:01;;;;;;;1999.90;999.90;;;;;;;20.49;100.00;93387.72;5065845;28;20273;-51
2023/08/26 02:26:26;;;;;;;1999.90;999.90;;;;;;;20.50;100.00;93395.53;5065764;28;20181;-51
2023/08/26 02:28:51;;;;;;;1999.90;999.90;;;;;;;20.49;100.00;93410.66;5065236;28;20245;-53
2023/08/26 02:31:17;;;;;;;1999.90;999.90;;;;;;;20.35;100.00;93402.69;5065188;28;20228;-51
2023/08/26 02:33:42;;;;;;;1999.90;999.90;;;;;;;20.30;100.00;93389.63;5065445;28;20221;-52
2023/08/26 02:36:10;;;;;;;1999.90;999.90;;;;;;;20.29;100.00;93388.88;5065027;28;20237;-54
2023/08/26 02:38:35;;;;;;;1999.90;999.90;;;;;;;20.16;100.00;93397.03;5065017;28;20174;-52
2023/08/26 02:41:02;;;;;;;1999.90;999.90;;;;;;;20.11;100.00;93555.84;5065419;28;20185;-54
2023/08/26 02:43:27;;;;;;;1999.90;999.90;;;;;;;20.18;100.00;93555.28;5065106;28;20194;-51
2023/08/26 02:45:54;;;;;;;1999.90;999.90;;;;;;;20.23;100.00;93596.09;5064911;28;20185;-53
2023/08/26 02:48:20;;;;;;;1999.90;999.90;;;;;;;20.27;100.00;93640.97;5064806;28;20245;-52
2023/08/26 02:50:46;;;;;;;1999.90;999.90;;;;;;;20.29;100.00;93660.59;5064709;28;20200;-52
2023/08/26 02:53:11;;;;;;;1999.90;999.90;;;;;;;20.26;100.00;93678.28;5064797;28;20174;-54
2023/08/26 02:55:37;;;;;;;1999.90;999.90;;;;;;;20.25;100.00;93714.84;5065153;28;20174;-53
2023/08/26 02:58:02;;;;;;;1999.90;999.90;;;;;;;20.16;100.00;93729.72;5064705;28;20185;-53
2023/08/26 03:00:28;;;;;;;1999.90;999.90;;;;;;;20.03;100.00;93743.28;5063840;28;20242;-52
2023/08/26 03:02:53;;;;;;;1999.90;999.90;;;;;;;19.87;100.00;93774.53;5064613;28;20284;-52
2023/08/26 03:05:18;;;;;;;1999.90;999.90;;;;;;;19.80;100.00;93791.63;5064166;28;20212;-54
2023/08/26 03:07:44;;;;;;;1999.90;999.90;;;;;;;19.72;100.00;93789.84;5064481;28;20174;-54
2023/08/26 03:10:09;;;;;;;1999.90;999.90;;;;;;;19.56;100.00;93785.81;5064590;28;20223;-58
2023/08/26 03:12:35;;;;;;;1999.90;999.90;;;;;;;19.41;100.00;93799.09;5064609;28;20245;-58
2023/08/26 03:15:00;;;;;;;1999.90;999.90;;;;;;;19.29;100.00;93798.31;5064802;28;20208;-59
2023/08/26 03:17:26;;;;;;;1999.90;999.90;;;;;;;19.20;100.00;93828.22;5064763;28;20455;-59
2023/08/26 03:19:51;;;;;;;1999.90;999.90;;;;;;;19.07;100.00;93822.34;5064497;28;20280;-59
2023/08/26 03:22:16;;;;;;;1999.90;999.90;;;;;;;18.91;100.00;93823.75;5064457;28;20175;-58
2023/08/26 03:24:42;;;;;;;1999.90;999.90;;;;;;;18.82;100.00;93820.44;5064734;28;20268;-58
2023/08/26 03:27:07;;;;;;;1999.90;999.90;;;;;;;18.80;100.00;93806.38;5064256;28;20178;-55
2023/08/26 03:29:33;;;;;;;1999.90;999.90;;;;;;;18.75;100.00;93810.59;5064356;28;20174;-56
2023/08/26 03:31:58;;;;;;;1999.90;999.90;;;;;;;18.72;100.00;93805.31;5064339;28;20178;-51
2023/08/26 03:34:23;;;;;;;1999.90;999.90;;;;;;;18.70;100.00;93813.34;5064815;28;20176;-53
2023/08/26 03:36:49;;;;;;;1999.90;999.90;;;;;;;18.70;100.00;93825.19;5064507;28;20169;-53
2023/08/26 03:39:14;;;;;;;1999.90;999.90;;;;;;;18.70;100.00;93825.19;5063947;28;20244;-51
2023/08/26 03:41:39;;;;;;;1999.90;999.90;;;;;;;18.77;100.00;93843.31;5063682;28;20174;-53
2023/08/26 03:44:05;;;;;;;1999.90;999.90;;;;;;;18.75;100.00;93843.81;5064021;28;20193;-56
2023/08/26 03:46:31;;;;;;;1999.90;999.90;;;;;;;18.65;100.00;93855.56;5064373;28;20166;-54
2023/08/26 03:48:56;;;;;;;1999.90;999.90;;;;;;;18.59;100.00;93885.94;5064169;28;20166;-55
2023/08/26 03:51:21;;;;;;;1999.90;999.90;;;;;;;18.56;100.00;93911.03;5064354;28;20408;-52
2023/08/26 03:53:47;;;;;;;1999.90;999.90;;;;;;;18.48;100.00;93919.03;5063716;28;20177;-52
2023/08/26 03:56:13;;;;;;;1999.90;999.90;;;;;;;18.38;100.00;93925.97;5063342;28;20227;-54
2023/08/26 03:58:39;;;;;;;1999.90;999.90;;;;;;;18.30;100.00;93929.63;5064232;28;20201;-51
2023/08/26 04:01:05;;;;;;;1999.90;999.90;;;;;;;18.30;100.00;93935.16;5063299;28;20244;-53
2023/08/26 04:03:31;;;;;;;1999.90;999.90;;;;;;;18.26;100.00;93951.22;5063572;28;20170;-52
2023/08/26 04:05:58;;;;;;;1999.90;999.90;;;;;;;18.24;100.00;93943.41;5063943;28;20193;-51
2023/08/26 04:08:24;;;;;;;1999.90;999.90;;;;;;;18.28;100.00;93943.94;5064148;28;20193;-50
2023/08/26 04:10:53;;;;;;;1999.90;999.90;;;;;;;18.21;100.00;93949.16;5063542;28;20196;-49
2023/08/26 04:13:22;;;;;;;1999.90;999.90;;;;;;;18.22;100.00;93945.91;5065592;28;20215;-53
2023/08/26 04:15:47;;;;;;;1999.90;999.90;;;;;;;18.20;100.00;93942.84;5067415;28;20170;-51
2023/08/26 04:18:13;;;;;;;1999.90;999.90;;;;;;;18.20;100.00;93939.31;5067608;28;20207;-54
2023/08/26 04:20:39;;;;;;;1999.90;999.90;;;;;;;18.20;100.00;93950.38;5068060;28;20211;-52
2023/08/26 04:23:04;;;;;;;1999.90;999.90;;;;;;;18.26;100.00;93968.56;5067599;28;20166;-54
2023/08/26 04:25:30;;;;;;;1999.90;999.90;;;;;;;18.32;100.00;93963.09;5067448;28;20197;-50
2023/08/26 04:27:55;;;;;;;1999.90;999.90;;;;;;;18.34;100.00;93952.28;5067515;28;20189;-51
2023/08/26 04:30:21;;;;;;;1999.90;999.90;;;;;;;18.25;100.00;93949.69;5067422;28;20162;-52
2023/08/26 04:32:47;;;;;;;1999.90;999.90;;;;;;;18.27;100.00;93930.59;5068191;28;20165;-51
2023/08/26 04:35:13;;;;;;;1999.90;999.90;;;;;;;18.30;100.00;93930.41;5067250;28;20237;-52
2023/08/26 04:37:39;;;;;;;1999.90;999.90;;;;;;;18.30;100.00;93962.81;5067228;28;20166;-50
2023/08/26 04:40:12;;;;;;;1999.90;999.90;;;;;;;18.30;100.00;93963.56;5066729;28;20177;-52
2023/08/26 04:42:38;;;;;;;1999.90;999.90;;;;;;;18.31;100.00;94003.78;5067571;28;20185;-53
2023/08/26 04:45:04;;;;;;;1999.90;999.90;;;;;;;18.42;100.00;94025.28;5067144;28;20209;-51
2023/08/26 04:47:29;;;;;;;1999.90;999.90;;;;;;;18.44;100.00;94022.78;5067107;28;20166;-54
2023/08/26 04:49:55;;;;;;;1999.90;999.90;;;;;;;18.45;100.00;94029.84;5067119;28;20212;-54
2023/08/26 04:52:20;;;;;;;1999.90;999.90;;;;;;;18.45;100.00;94052.72;5067927;28;20170;-53
2023/08/26 04:54:45;;;;;;;1999.90;999.90;;;;;;;18.48;100.00;94062.03;5066933;28;20170;-55
2023/08/26 04:57:12;;;;;;;1999.90;999.90;;;;;;;18.51;100.00;94066.59;5066844;28;20241;-53
2023/08/26 04:59:37;;;;;;;1999.90;999.90;;;;;;;18.51;100.00;94077.66;5067186;28;20211;-54
2023/08/26 05:02:04;;;;;;;1999.90;999.90;;;;;;;18.48;100.00;94095.22;5067436;28;20204;-53
2023/08/26 05:04:29;;;;;;;1999.90;999.90;;;;;;;18.49;100.00;94093.97;5066650;28;20198;-52
2023/08/26 05:06:54;;;;;;;1999.90;999.90;;;;;;;18.51;100.00;94106.06;5066725;28;20193;-53
2023/08/26 05:09:20;;;;;;;1999.90;999.90;;;;;;;18.55;100.00;94194.38;5067258;28;20196;-49
2023/08/26 05:11:45;;;;;;;1999.90;999.90;;;;;;;18.58;100.00;94204.47;5066838;28;20181;-53
2023/08/26 05:14:11;;;;;;;1999.90;999.90;;;;;;;18.64;100.00;94213.56;5066677;28;20244;-53
2023/08/26 05:16:36;;;;;;;1999.90;999.90;;;;;;;18.70;100.00;94214.41;5066515;28;20169;-53
2023/08/26 05:19:01;;;;;;;1999.90;999.90;;;;;;;18.72;100.00;94214.72;5067043;28;20193;-53
2023/08/26 05:21:27;;;;;;;1999.90;999.90;;;;;;;18.74;100.00;94226.03;5066398;28;20190;-55
2023/08/26 05:23:52;;;;;;;1999.90;999.90;;;;;;;18.75;100.00;94214.47;5065859;28;20201;-52
2023/08/26 05:26:17;;;;;;;1999.90;999.90;;;;;;;18.63;100.00;94223.13;5066332;28;20224;-53
2023/08/26 05:28:43;;;;;;;1999.90;999.90;;;;;;;18.57;100.00;94219.50;5066256;28;20291;-54
2023/08/26 05:31:08;;;;;;;1999.90;999.90;;;;;;;18.59;100.00;94222.56;5066745;28;20174;-55
2023/08/26 05:33:33;;;;;;;1999.90;999.90;;;;;;;18.70;100.00;94220.72;5066181;28;20389;-50
2023/08/26 05:35:59;;;;;;;1999.90;999.90;;;;;;;18.77;100.00;94214.78;5066208;28;20215;-53
2023/08/26 05:38:24;;;;;;;1999.90;999.90;;;;;;;18.79;100.00;94208.72;5066158;28;20181;-55
2023/08/26 05:40:49;;;;;;;1999.90;999.90;;;;;;;18.76;100.00;94202.16;5066086;28;20170;-55
2023/08/26 05:43:15;;;;;;;1999.90;999.90;;;;;;;18.71;100.00;94193.78;5066006;28;20193;-52
2023/08/26 05:45:40;;;;;;;1999.90;999.90;;;;;;;18.86;100.00;94191.72;5066422;28;20265;-54
2023/08/26 05:48:05;;;;;;;1999.90;999.90;;;;;;;18.92;100.00;94190.56;5066270;28;20178;-54
2023/08/26 05:50:31;;;;;;;1999.90;999.90;;;;;;;19.00;100.00;94196.41;5066632;28;20170;-54
2023/08/26 05:52:56;;;;;;;1999.90;999.90;;;;;;;19.09;100.00;94182.44;5066358;28;20174;-51
2023/08/26 05:55:21;;;;;;;1999.90;999.90;;;;;;;19.20;100.00;94171.47;5066262;28;20233;-53
2023/08/26 05:57:47;;;;;;;1999.90;999.90;;;;;;;19.31;100.00;94177.16;5066158;28;20174;-54
2023/08/26 06:00:13;;;;;;;1999.90;999.90;;;;;;;19.37;100.00;94153.00;5065996;28;20213;-53
2023/08/26 06:02:38;;;;;;;1999.90;999.90;;;;;;;19.42;100.00;94144.00;5066226;28;20199;-52
2023/08/26 06:05:05;;;;;;;1999.90;999.90;;;;;;;19.39;100.00;94129.16;5066152;28;20256;-51
2023/08/26 06:07:30;;;;;;;1999.90;999.90;;;;;;;19.54;100.00;94090.22;5065639;28;20198;-49
2023/08/26 06:09:56;;;;;;;1999.90;999.90;;;;;;;19.65;100.00;94068.13;5066357;28;20189;-54
2023/08/26 06:12:21;;;;;;;1999.90;999.90;;;;;;;19.61;100.00;94044.69;5065651;28;20185;-54
2023/08/26 06:14:46;;;;;;;1999.90;999.90;;;;;;;19.67;100.00;94010.25;5065712;28;20173;-53
2023/08/26 06:17:12;;;;;;;1999.90;999.90;;;;;;;19.78;100.00;93970.75;5066074;28;20176;-59
2023/08/26 06:19:37;;;;;;;1999.90;999.90;;;;;;;19.82;100.00;93943.53;5065259;28;20249;-60
2023/08/26 06:22:02;;;;;;;1999.90;999.90;;;;;;;19.85;100.00;93926.66;5065534;28;20170;-55
2023/08/26 06:24:28;;;;;;;1999.90;999.90;;;;;;;19.87;100.00;93904.78;5065156;28;20194;-53
2023/08/26 06:26:53;;;;;;;1999.90;999.90;;;;;;;20.14;100.00;93883.97;5065543;28;20165;-55
2023/08/26 06:29:19;;;;;;;1999.90;999.90;;;;;;;20.25;100.00;93859.75;5065180;28;20170;-55
2023/08/26 06:31:45;;;;;;;1999.90;999.90;;;;;;;20.37;100.00;93854.97;5065136;28;20173;-54
2023/08/26 06:34:10;;;;;;;1999.90;999.90;;;;;;;20.45;100.00;93842.88;5065203;28;20192;-52
2023/08/26 06:36:36;;;;;;;1999.90;999.90;;;;;;;20.57;100.00;93836.06;5064090;28;20170;-52
2023/08/26 06:39:01;;;;;;;1999.90;999.90;;;;;;;20.47;100.00;93842.38;5064939;28;20166;-51
2023/08/26 06:41:27;;;;;;;1999.90;999.90;;;;;;;20.23;100.00;93878.16;5064951;28;20168;-53
2023/08/26 06:43:52;;;;;;;1999.90;999.90;;;;;;;20.10;100.00;93889.72;5064786;28;20241;-51
2023/08/26 06:46:17;;;;;;;1999.90;999.90;;;;;;;19.97;100.00;93919.94;5064924;28;20165;-54
2023/08/26 06:48:43;;;;;;;1999.90;999.90;;;;;;;20.02;100.00;93935.81;5064779;28;20177;-55
2023/08/26 06:51:08;;;;;;;1999.90;999.90;;;;;;;20.18;100.00;93929.56;5065367;28;20166;-57
2023/08/26 06:53:33;;;;;;;1999.90;999.90;;;;;;;20.44;100.00;93932.91;5064710;28;20170;-55
2023/08/26 06:55:59;;;;;;;1999.90;999.90;;;;;;;20.86;100.00;93951.34;5064778;28;20166;-55
2023/08/26 06:58:24;;;;;;;1999.90;999.90;;;;;;;21.21;100.00;93988.47;5064578;28;20166;-58
2023/08/26 07:00:50;;;;;;;1999.90;999.90;;;;;;;21.53;100.00;94019.50;5064385;28;20225;-57
2023/08/26 07:03:15;;;;;;;1999.90;999.90;;;;;;;21.63;100.00;94124.34;5064293;28;20177;-56
2023/08/26 07:05:46;;;;;;;1999.90;999.90;;;;;;;21.99;100.00;94209.53;5064975;28;20213;-56
2023/08/26 07:08:12;;;;;;;1999.90;999.90;;;;;;;22.40;100.00;94296.78;5064408;28;20178;-56
2023/08/26 07:10:38;;;;;;;1999.90;999.90;;;;;;;22.66;100.00;94407.16;5064959;28;20182;-57
2023/08/26 07:13:03;;;;;;;1999.90;999.90;;;;;;;22.84;100.00;94520.81;5064428;28;20174;-57
2023/08/26 07:15:29;;;;;;;1999.90;999.90;;;;;;;23.31;100.00;94628.59;5064863;28;20240;-57
2023/08/26 07:17:54;;;;;;;1999.90;999.90;;;;;;;23.83;100.00;94769.09;5064759;28;20178;-57
2023/08/26 07:20:20;;;;;;;1999.90;999.90;;;;;;;24.84;100.00;94861.63;5064267;28;20245;-57
2023/08/26 07:22:46;;;;;;;1999.90;999.90;;;;;;;26.20;100.00;94968.16;5064212;28;20189;-58
2023/08/26 07:25:12;;;;;;;1999.90;999.90;;;;;;;27.28;100.00;95037.41;5064072;28;20226;-58
2023/08/26 07:27:38;;;;;;;1999.90;999.90;;;;;;;27.51;100.00;95078.06;5064561;28;20237;-58
2023/08/26 07:30:04;;;;;;;1999.90;999.90;;;;;;;27.67;100.00;95094.00;5063791;28;20188;-58
2023/08/26 07:32:29;;;;;;;1999.90;999.90;;;;;;;27.56;100.00;95102.50;5064496;28;20174;-64
2023/08/26 07:34:55;;;;;;;1999.90;999.90;;;;;;;27.66;100.00;95123.38;5064257;28;20200;-63
2023/08/26 07:37:20;;;;;;;1999.90;999.90;;;;;;;27.22;100.00;95123.66;5064481;28;20237;-63
2023/08/26 07:39:48;;;;;;;1999.90;999.90;;;;;;;26.69;100.00;95140.94;5063347;28;20170;-62
2023/08/26 07:42:13;;;;;;;1999.90;999.90;;;;;;;26.00;100.00;95144.09;5063869;28;20181;-53
2023/08/26 07:44:38;;;;;;;1999.90;999.90;;;;;;;25.58;100.00;95147.88;5063672;28;20201;-50
2023/08/26 07:47:04;;;;;;;1999.90;999.90;;;;;;;25.09;100.00;95135.28;5063642;28;20170;-51
2023/08/26 07:49:29;;;;;;;1999.90;999.90;;;;;;;25.00;100.00;95131.97;5063851;28;20166;-54
2023/08/26 07:51:54;;;;;;;1999.90;999.90;;;;;;;24.84;100.00;95132.69;5064262;28;20250;-54
2023/08/26 07:54:20;;;;;;;1999.90;999.90;;;;;;;24.89;100.00;95137.50;5063856;28;20170;-54
2023/08/26 07:56:45;;;;;;;1999.90;999.90;;;;;;;24.71;100.00;95135.16;5064145;28;20177;-55
2023/08/26 07:59:10;;;;;;;1999.90;999.90;;;;;;;24.71;100.00;95133.13;5064333;28;20174;-55
2023/08/26 08:01:36;;;;;;;1999.90;999.90;;;;;;;24.92;100.00;95130.91;5063827;28;20209;-47
2023/08/26 08:04:01;;;;;;;1999.90;999.90;;;;;;;25.19;100.00;95128.22;5063630;28;20193;-59
2023/08/26 08:06:36;;;;;;;1999.90;999.90;;;;;;;25.30;100.00;95133.06;5063852;28;20193;-52
2023/08/26 08:09:01;;;;;;;1999.90;999.90;;;;;;;25.11;100.00;95137.59;5063740;28;20169;-50
2023/08/26 08:11:26;;;;;;;1999.90;999.90;;;;;;;25.05;100.00;95145.19;5063692;28;20189;-54
2023/08/26 08:13:52;;;;;;;1999.90;999.90;;;;;;;25.31;100.00;95134.59;5063605;28;20205;-51
2023/08/26 08:16:17;;;;;;;1999.90;999.90;;;;;;;26.12;100.00;95140.78;5064148;28;20198;-53
2023/08/26 08:18:43;;;;;;;1999.90;999.90;;;;;;;26.41;100.00;95137.44;5063255;28;20174;-51
2023/08/26 08:21:09;;;;;;;1999.90;999.90;;;;;;;26.26;100.00;95139.00;5063674;28;20189;-58
2023/08/26 08:23:35;;;;;;;1999.90;999.90;;;;;;;26.25;100.00;95143.81;5064023;28;20181;-48
2023/08/26 08:26:00;;;;;;;1999.90;999.90;;;;;;;25.94;100.00;95135.69;5063347;28;20217;-49
2023/08/26 08:28:25;;;;;;;1999.90;999.90;;;;;;;25.92;100.00;95120.69;5063631;28;20170;-46
2023/08/26 08:30:51;;;;;;;1999.90;999.90;;;;;;;26.10;100.00;95126.53;5063955;28;20227;-49
2023/08/26 08:33:16;;;;;;;1999.90;999.90;;;;;;;26.32;100.00;95120.88;5063765;28;20208;-47
2023/08/26 08:35:41;;;;;;;1999.90;999.90;;;;;;;26.67;100.00;95123.88;5063422;28;20174;-50
2023/08/26 08:38:07;;;;;;;1999.90;999.90;;;;;;;27.00;100.00;95132.16;5064166;28;20174;-51
2023/08/26 08:40:32;;;;;;;1999.90;999.90;;;;;;;27.90;100.00;95112.22;5063471;28;20180;-49
2023/08/26 08:42:58;;;;;;;1999.90;999.90;;;;;;;29.79;100.00;95103.84;5063159;28;20193;-52
2023/08/26 08:45:25;;;;;;;1999.90;999.90;;;;;;;31.37;100.00;95089.34;5063786;28;20205;-50
2023/08/26 08:47:53;;;;;;;1999.90;999.90;;;;;;;31.37;100.00;95089.34;5063282;28;20174;-52
2023/08/26 08:50:20;;;;;;;1999.90;999.90;;;;;;;30.12;100.00;95091.28;5062810;28;20193;-51
2023/08/26 08:52:49;;;;;;;1999.90;999.90;;;;;;;28.99;100.00;95094.72;5063695;28;20196;-53
2023/08/26 08:55:14;;;;;;;1999.90;999.90;;;;;;;28.83;100.00;95101.31;5063185;28;20240;-52
2023/08/26 08:57:42;;;;;;;1999.90;999.90;;;;;;;28.87;100.00;95115.09;5063669;28;20170;-51
2023/08/26 09:00:08;;;;;;;1999.90;999.90;;;;;;;29.07;100.00;95117.41;5065953;28;20210;-51
2023/08/26 09:02:37;;;;;;;1999.90;999.90;;;;;;;28.50;100.00;95129.03;5067153;28;20195;-51
2023/08/26 09:05:03;;;;;;;1999.90;999.90;;;;;;;28.02;100.00;95133.31;5066737;28;20202;-50
2023/08/26 09:07:29;;;;;;;1999.90;999.90;;;;;;;28.02;100.00;95138.94;5066838;28;20260;-50
2023/08/26 09:09:56;;;;;;;1999.90;999.90;;;;;;;27.70;100.00;95143.50;5067011;28;20177;-50
2023/08/26 09:12:22;;;;;;;1999.90;999.90;;;;;;;27.84;100.00;95130.41;5066448;28;20173;-50
2023/08/26 09:14:48;;;;;;;1999.90;999.90;;;;;;;28.42;100.00;95130.91;5066628;28;20185;-49
2023/08/26 09:17:19;;;;;;;1999.90;999.90;;;;;;;30.33;100.00;95121.13;5066857;28;20174;-49
2023/08/26 09:19:55;;;;;;;1999.90;999.90;;;;;;;31.25;100.00;95110.66;5066492;28;20174;-53
2023/08/26 09:22:31;;;;;;;1999.90;999.90;;;;;;;32.87;100.00;95107.72;5066307;28;20177;-50
2023/08/26 09:24:58;;;;;;;1999.90;999.90;;;;;;;32.79;100.00;95118.19;5066395;28;20239;-49
2023/08/26 09:27:24;;;;;;;1999.90;999.90;;;;;;;32.35;100.00;95113.72;5066749;28;20177;-51
2023/08/26 09:29:50;;;;;;;1999.90;999.90;;;;;;;32.27;100.00;95095.91;5066279;28;20189;-50
2023/08/26 09:32:29;;;;;;;1999.90;999.90;;;;;;;31.95;100.00;95064.34;5066385;28;20201;-51
2023/08/26 09:35:08;;;;;;;1999.90;999.90;;;;;;;31.31;100.00;95068.19;5066798;28;20165;-51
2023/08/26 09:37:33;;;;;;;1999.90;999.90;;;;;;;30.59;100.00;95078.13;5066636;28;20166;-49
2023/08/26 09:39:58;;;;;;;1999.90;999.90;;;;;;;30.53;100.00;95097.19;5065915;28;20198;-50
2023/08/26 09:42:24;;;;;;;1999.90;999.90;;;;;;;31.08;100.00;95101.75;5065963;28;20170;-48
2023/08/26 09:44:49;;;;;;;1999.90;999.90;;;;;;;29.78;100.00;95107.19;5066179;28;20200;-52
2023/08/26 09:47:15;;;;;;;1999.90;999.90;;;;;;;29.57;100.00;95097.78;5066478;28;20173;-50
2023/08/26 09:49:48;;;;;;;1999.90;999.90;;;;;;;29.47;100.00;95094.59;5065949;28;20207;-50
2023/08/26 09:52:13;;;;;;;1999.90;999.90;;;;;;;29.04;100.00;95098.78;5066545;28;20197;-50
2023/08/26 09:54:40;;;;;;;1999.90;999.90;;;;;;;28.92;100.00;95091.75;5065652;28;20192;-48
2023/08/26 09:57:05;;;;;;;1999.90;999.90;;;;;;;28.21;100.00;95092.03;5066289;28;20174;-53
2023/08/26 09:59:31;;;;;;;1999.90;999.90;;;;;;;27.61;100.00;95098.91;5066067;28;20170;-51
2023/08/26 10:02:01;;;;;;;1999.90;999.90;;;;;;;27.29;100.00;95089.44;5066171;28;20173;-57
2023/08/26 10:04:32;;;;;;;1999.90;999.90;;;;;;;27.40;100.00;95089.38;5065641;28;20202;-58
2023/08/26 10:06:59;;;;;;;1999.90;999.90;;;;;;;27.14;100.00;95083.41;5065391;28;20245;-55
2023/08/26 10:09:46;;;;;;;1999.90;999.90;;;;;;;27.19;100.00;95076.97;5065986;28;20170;-55
2023/08/26 10:12:29;;;;;;;1999.90;999.90;;;;;;;27.71;100.00;95074.06;5065520;28;20181;-56
2023/08/26 10:14:59;;;;;;;1999.90;999.90;;;;;;;27.78;100.00;95063.03;5065922;28;20166;-56
2023/08/26 10:17:26;;;;;;;1999.90;999.90;;;;;;;27.14;100.00;95060.97;5065367;28;20170;-55
2023/08/26 10:19:52;;;;;;;1999.90;999.90;;;;;;;27.25;100.00;95049.69;5065898;28;20170;-57
2023/08/26 10:22:18;;;;;;;1999.90;999.90;;;;;;;26.84;100.00;95045.31;5065213;28;20169;-56
2023/08/26 10:24:45;;;;;;;1999.90;999.90;;;;;;;27.01;100.00;95041.13;5065651;28;20265;-57
2023/08/26 10:27:10;;;;;;;1999.90;999.90;;;;;;;27.35;100.00;95047.31;5065367;28;20198;-57
2023/08/26 10:29:36;;;;;;;1999.90;999.90;;;;;;;27.66;100.00;95039.16;5065083;28;20169;-57
2023/08/26 10:32:19;;;;;;;1999.90;999.90;;;;;;;27.49;100.00;95037.75;5065600;28;20169;-56
2023/08/26 10:34:55;;;;;;;1999.90;999.90;;;;;;;26.95;100.00;95043.19;5065281;28;20197;-56
2023/08/26 10:37:27;;;;;;;1999.90;999.90;;;;;;;27.83;100.00;95025.75;5065106;28;20193;-56
2023/08/26 10:39:54;;;;;;;1999.90;999.90;;;;;;;27.94;100.00;95022.81;5065482;28;20166;-57
2023/08/26 10:42:20;;;;;;;1999.90;999.90;;;;;;;28.05;100.00;95007.91;5065462;28;20200;-55
2023/08/26 10:44:47;;;;;;;1999.90;999.90;;;;;;;27.47;100.00;95007.44;5064691;28;20225;-55